Check out our new BloomSky Weather System.

Active alerts


No alerts


Thunder radar  blitzortung!


Rain radar more information rain snow radar


Visit our other weather sites:

Template documentation
and downloads

And another site



Weather Underground History page Text

Daily Summary for February 10, 2018 Units:  English    Metric   Both
« Previous Day
Next Day »
Daily Weekly Monthly Yearly Custom
  High: Low: Average:
Temperature: TemperatureF °F 45.3 °F 62.6 °F
Dew Point: DewpointF °F 44.8 °F 62 °F
Humidity: Humidity % 90 % 98 %
Wind Speed: WindSpeedMPH mph 0.0 mph 1.6 mph
Wind Gust: WindSpeedGustMPH mph - -
Wind:- - SW
Pressure: PressureIn in 29.78 in -
Precipitation: 1.43 in    
Historical Graphs
 
 
Tabular Data for February 10, 2018
Time Temperature Dew Point Pressure Wind Wind Speed Wind Gust Humidity Rainfall Rate (Hourly)
TemperatureF °F DewpointF °F PressureIn in Calm     Humidity % HourlyPrecipIn in
00:02 66.4 °F 66.0 °F 29.97 in SE 5.0 mph 8.0 mph 99 % 0.01 in
00:07 66.4 °F 66.0 °F 29.97 in SSE 2.0 mph 8.0 mph 99 % 0.01 in
00:12 66.2 °F 65.8 °F 29.97 in SW 3.0 mph 7.0 mph 99 % 0.01 in
00:17 66.2 °F 65.8 °F 29.97 in South 2.0 mph 6.0 mph 99 % 0.02 in
00:22 66.2 °F 65.8 °F 29.97 in SSE 3.0 mph 6.0 mph 99 % 0.02 in
00:27 66.2 °F 65.8 °F 29.96 in SSE 1.0 mph 6.0 mph 99 % 0.02 in
00:32 66.0 °F 65.7 °F 29.96 in SSE 1.0 mph 5.0 mph 99 % 0.02 in
00:37 66.0 °F 65.7 °F 29.96 in SW 2.0 mph 4.0 mph 99 % 0.02 in
00:42 65.8 °F 65.5 °F 29.96 in Calm   3.0 mph 99 % 0.01 in
00:47 65.8 °F 65.5 °F 29.96 in Calm   2.0 mph 99 % 0.01 in
00:52 65.8 °F 65.5 °F 29.96 in Calm   2.0 mph 99 % 0.02 in
00:57 65.8 °F 65.5 °F 29.96 in SSW 1.0 mph 2.0 mph 99 % 0.02 in
01:02 65.8 °F 65.5 °F 29.96 in SW 1.0 mph 2.0 mph 99 % 0.02 in
01:07 65.7 °F 65.3 °F 29.96 in Calm   2.0 mph 99 % 0.02 in
01:12 65.7 °F 65.3 °F 29.96 in Calm   2.0 mph 99 % 0.02 in
01:17 65.7 °F 65.3 °F 29.96 in Calm   2.0 mph 99 % 0.01 in
01:22 65.7 °F 65.3 °F 29.96 in Calm   2.0 mph 99 % 0.01 in
01:27 65.7 °F 65.3 °F 29.95 in Calm   2.0 mph 99 % 0.01 in
01:32 65.7 °F 65.3 °F 29.95 in Calm   2.0 mph 99 % 0.01 in
01:37 65.5 °F 65.1 °F 29.94 in Calm   2.0 mph 99 % 0.02 in
01:42 65.5 °F 65.1 °F 29.94 in Calm   2.0 mph 99 % 0.02 in
01:47 65.5 °F 65.1 °F 29.94 in SE 1.0 mph 1.0 mph 99 % 0.02 in
01:52 65.5 °F 65.1 °F 29.94 in Calm   1.0 mph 99 % 0.01 in
01:57 65.3 °F 64.9 °F 29.94 in Calm   1.0 mph 99 % 0.01 in
02:02 65.1 °F 64.8 °F 29.94 in Calm   1.0 mph 99 % 0.02 in
02:07 65.1 °F 64.8 °F 29.94 in Calm   1.0 mph 99 % 0.02 in
02:12 64.9 °F 64.6 °F 29.94 in SSE 1.0 mph   99 % 0.02 in
02:17 65.1 °F 64.8 °F 29.94 in Calm   2.0 mph 99 % 0.02 in
02:22 65.1 °F 64.8 °F 29.94 in Calm   2.0 mph 99 % 0.02 in
02:27 65.1 °F 64.8 °F 29.93 in SE 1.0 mph 2.0 mph 99 % 0.02 in
02:32 64.9 °F 64.6 °F 29.92 in Calm   1.0 mph 99 % 0.02 in
02:37 64.9 °F 64.6 °F 29.92 in Calm   1.0 mph 99 % 0.01 in
02:43 64.9 °F 64.6 °F 29.92 in SE 1.0 mph 1.0 mph 99 % 0.01 in
02:48 64.9 °F 64.6 °F 29.93 in South 1.0 mph 1.0 mph 99 % 0.01 in
02:53 64.9 °F 64.6 °F 29.93 in Calm   1.0 mph 99 % 0.01 in
02:58 64.9 °F 64.6 °F 29.93 in Calm   1.0 mph 99 % 0.01 in
03:03 64.9 °F 64.6 °F 29.93 in Calm   1.0 mph 99 % 0.01 in
03:08 64.9 °F 64.6 °F 29.93 in Calm   1.0 mph 99 % 0.06 in
03:13 64.9 °F 64.6 °F 29.92 in Calm   1.0 mph 99 % 0.09 in
03:18 64.9 °F 64.6 °F 29.92 in Calm     99 % 0.11 in
03:23 64.9 °F 64.6 °F 29.93 in Calm     99 % 0.13 in
03:28 64.9 °F 64.6 °F 29.91 in NNE 1.0 mph 1.0 mph 99 % 0.20 in
03:33 64.9 °F 64.6 °F 29.91 in Calm   2.0 mph 99 % 0.26 in
03:38 64.9 °F 64.6 °F 29.92 in Calm   2.0 mph 99 % 0.31 in
03:43 64.9 °F 64.6 °F 29.91 in Calm   2.0 mph 99 % 0.36 in
03:48 64.9 °F 64.6 °F 29.91 in Calm   1.0 mph 99 % 0.38 in
03:53 64.8 °F 64.4 °F 29.91 in Calm   1.0 mph 99 % 0.41 in
03:58 64.8 °F 64.4 °F 29.91 in Calm   1.0 mph 99 % 0.44 in
04:03 64.8 °F 64.4 °F 29.91 in Calm   1.0 mph 99 % 0.46 in
04:08 64.6 °F 64.2 °F 29.91 in Calm   1.0 mph 99 % 0.43 in
04:13 64.6 °F 64.2 °F 29.91 in Calm   1.0 mph 99 % 0.41 in
04:18 64.6 °F 64.2 °F 29.91 in Calm   1.0 mph 99 % 0.40 in
04:23 64.6 °F 64.2 °F 29.90 in Calm   1.0 mph 99 % 0.38 in
04:28 64.6 °F 64.2 °F 29.90 in Calm   1.0 mph 99 % 0.31 in
04:33 64.4 °F 64.0 °F 29.90 in Calm   1.0 mph 99 % 0.26 in
04:38 64.4 °F 64.0 °F 29.90 in Calm   1.0 mph 99 % 0.24 in
04:43 64.2 °F 63.9 °F 29.91 in East 1.0 mph   99 % 0.20 in
04:48 64.4 °F 64.0 °F 29.90 in East 1.0 mph 1.0 mph 99 % 0.20 in
04:53 64.4 °F 64.0 °F 29.90 in Calm   1.0 mph 99 % 0.19 in
04:58 64.4 °F 64.0 °F 29.90 in East 1.0 mph 1.0 mph 99 % 0.17 in
05:03 64.4 °F 64.0 °F 29.91 in Calm   1.0 mph 99 % 0.16 in
05:08 64.4 °F 64.0 °F 29.90 in Calm   1.0 mph 99 % 0.23 in
05:13 64.6 °F 64.6 °F 29.90 in SE 1.0 mph 1.0 mph 100 % 0.25 in
05:18 64.6 °F 64.6 °F 29.89 in Calm   1.0 mph 100 % 0.29 in
05:23 64.6 °F 64.6 °F 29.90 in NW 1.0 mph 1.0 mph 100 % 0.34 in
05:28 64.8 °F 64.8 °F 29.91 in Calm   2.0 mph 100 % 0.36 in
05:33 64.6 °F 64.6 °F 29.91 in Calm   2.0 mph 100 % 0.36 in
05:38 64.6 °F 64.6 °F 29.91 in Calm   2.0 mph 100 % 0.37 in
05:43 64.6 °F 64.6 °F 29.90 in Calm   1.0 mph 100 % 0.42 in
05:48 64.6 °F 64.6 °F 29.90 in Calm   1.0 mph 100 % 0.46 in
05:53 64.6 °F 64.6 °F 29.90 in ENE 1.0 mph 1.0 mph 100 % 0.48 in
05:58 64.8 °F 64.8 °F 29.90 in Calm   1.0 mph 100 % 0.48 in
06:04 64.8 °F 64.8 °F 29.91 in Calm   1.0 mph 100 % 0.47 in
06:09 64.6 °F 64.6 °F 29.90 in Calm   1.0 mph 100 % 0.40 in
06:14 64.6 °F 64.6 °F 29.90 in Calm   1.0 mph 100 % 0.39 in
06:19 64.6 °F 64.6 °F 29.91 in Calm   1.0 mph 100 % 0.37 in
06:24 64.6 °F 64.6 °F 29.90 in Calm   1.0 mph 100 % 0.37 in
06:29 64.6 °F 64.6 °F 29.90 in Calm   1.0 mph 100 % 0.37 in
06:34 64.6 °F 64.6 °F 29.90 in Calm   1.0 mph 100 % 0.36 in
06:39 64.6 °F 64.6 °F 29.91 in Calm   1.0 mph 100 % 0.34 in
06:44 64.6 °F 64.6 °F 29.90 in NNW 1.0 mph 1.0 mph 100 % 0.30 in
06:49 64.6 °F 64.6 °F 29.90 in Calm   2.0 mph 100 % 0.24 in
06:54 64.6 °F 64.6 °F 29.90 in Calm   2.0 mph 100 % 0.22 in
06:59 64.6 °F 64.6 °F 29.90 in Calm   2.0 mph 100 % 0.21 in
07:04 64.6 °F 64.6 °F 29.90 in North 1.0 mph 3.0 mph 100 % 0.20 in
07:09 64.6 °F 64.6 °F 29.90 in NW 1.0 mph 3.0 mph 100 % 0.20 in
07:14 64.6 °F 64.6 °F 29.90 in Calm   3.0 mph 100 % 0.18 in
07:19 64.6 °F 64.6 °F 29.90 in Calm   2.0 mph 100 % 0.17 in
07:24 64.6 °F 64.6 °F 29.90 in Calm   2.0 mph 100 % 0.12 in
07:29 64.6 °F 64.6 °F 29.90 in Calm   1.0 mph 100 % 0.11 in
07:34 64.6 °F 64.6 °F 29.90 in NW 1.0 mph 1.0 mph 100 % 0.10 in
07:39 64.6 °F 64.6 °F 29.91 in Calm   2.0 mph 100 % 0.09 in
07:44 64.6 °F 64.6 °F 29.90 in Calm   2.0 mph 100 % 0.06 in
07:49 64.6 °F 64.6 °F 29.90 in Calm   2.0 mph 100 % 0.06 in
07:54 64.6 °F 64.6 °F 29.90 in Calm   1.0 mph 100 % 0.05 in
07:59 64.6 °F 64.6 °F 29.89 in Calm   1.0 mph 100 % 0.05 in
08:04 64.6 °F 64.6 °F 29.90 in Calm   1.0 mph 100 % 0.04 in
08:09 64.6 °F 64.6 °F 29.89 in Calm   1.0 mph 100 % 0.03 in
08:14 64.6 °F 64.6 °F 29.89 in Calm   1.0 mph 100 % 0.03 in
08:19 64.6 °F 64.6 °F 29.90 in East 1.0 mph 1.0 mph 100 % 0.01 in
08:24 64.6 °F 64.6 °F 29.90 in Calm   1.0 mph 100 % 0.01 in
08:29 64.6 °F 64.6 °F 29.90 in Calm   1.0 mph 100 % 0.00 in
08:34 64.8 °F 64.8 °F 29.90 in Calm   1.0 mph 100 % 0.00 in
08:39 64.8 °F 64.8 °F 29.90 in Calm   2.0 mph 100 % 0.00 in
08:44 64.8 °F 64.8 °F 29.91 in Calm   2.0 mph 100 % 0.00 in
08:49 64.8 °F 64.8 °F 29.91 in East 1.0 mph 2.0 mph 100 % 0.00 in
08:54 64.9 °F 64.9 °F 29.91 in ESE 1.0 mph 1.0 mph 100 % 0.00 in
08:59 64.9 °F 64.9 °F 29.91 in Calm   1.0 mph 100 % 0.00 in
09:04 64.9 °F 64.9 °F 29.91 in Calm   2.0 mph 100 % 0.00 in
09:09 65.1 °F 65.1 °F 29.91 in East 1.0 mph 2.0 mph 100 % 0.00 in
09:14 65.1 °F 65.1 °F 29.91 in Calm   2.0 mph 100 % 0.00 in
09:19 65.1 °F 65.1 °F 29.91 in ESE 1.0 mph 2.0 mph 100 % 0.00 in
09:24 65.1 °F 65.1 °F 29.90 in Calm   2.0 mph 100 % 0.00 in
09:29 65.3 °F 65.3 °F 29.91 in Calm   2.0 mph 100 % 0.00 in
09:34 65.5 °F 65.5 °F 29.91 in ESE 1.0 mph 2.0 mph 100 % 0.00 in
09:39 65.5 °F 65.5 °F 29.91 in Calm   2.0 mph 100 % 0.00 in
09:44 65.7 °F 65.7 °F 29.91 in East 2.0 mph 3.0 mph 100 % 0.00 in
09:49 65.7 °F 65.7 °F 29.91 in Calm   3.0 mph 100 % 0.00 in
09:54 66.0 °F 66.0 °F 29.90 in ESE 1.0 mph 3.0 mph 100 % 0.00 in
09:59 66.4 °F 66.4 °F 29.91 in Calm   3.0 mph 100 % 0.00 in
10:04 66.4 °F 66.4 °F 29.91 in South 1.0 mph 2.0 mph 100 % 0.00 in
10:09 66.6 °F 66.6 °F 29.91 in Calm   2.0 mph 100 % 0.00 in
10:14 66.7 °F 66.7 °F 29.91 in Calm   2.0 mph 100 % 0.00 in
10:19 66.9 °F 66.9 °F 29.91 in SE 1.0 mph 2.0 mph 100 % 0.00 in
10:24 66.7 °F 66.7 °F 29.91 in Calm   2.0 mph 100 % 0.00 in
10:29 66.9 °F 66.9 °F 29.91 in Calm   3.0 mph 100 % 0.00 in
10:34 67.5 °F 67.5 °F 29.91 in Calm   3.0 mph 100 % 0.00 in
10:39 67.8 °F 67.8 °F 29.91 in Calm   3.0 mph 100 % 0.00 in
10:44 68.9 °F 68.9 °F 29.91 in South 1.0 mph 2.0 mph 100 % 0.00 in
10:49 69.4 °F 69.4 °F 29.91 in SSE 2.0 mph 2.0 mph 100 % 0.00 in
10:54 69.1 °F 69.1 °F 29.91 in South 1.0 mph 3.0 mph 100 % 0.00 in
10:59 69.4 °F 69.4 °F 29.90 in SE 1.0 mph 3.0 mph 100 % 0.00 in
11:04 69.8 °F 69.8 °F 29.90 in SSW 2.0 mph 3.0 mph 100 % 0.00 in
11:09 70.0 °F 70.0 °F 29.90 in SSW 1.0 mph 3.0 mph 100 % 0.00 in
11:14 70.0 °F 70.0 °F 29.90 in Calm   3.0 mph 100 % 0.00 in
11:19 69.8 °F 69.8 °F 29.90 in ESE 1.0 mph 4.0 mph 100 % 0.00 in
11:24 69.8 °F 69.8 °F 29.90 in SSW 2.0 mph 4.0 mph 100 % 0.00 in
11:29 69.3 °F 68.9 °F 29.90 in SSW 2.0 mph 4.0 mph 99 % 0.00 in
11:34 69.3 °F 68.9 °F 29.89 in East 2.0 mph 3.0 mph 99 % 0.00 in
11:39 69.3 °F 69.3 °F 29.89 in SSW 1.0 mph 3.0 mph 100 % 0.00 in
11:44 69.3 °F 69.3 °F 29.89 in Calm   3.0 mph 100 % 0.00 in
11:49 69.3 °F 69.3 °F 29.88 in South 2.0 mph 3.0 mph 100 % 0.00 in
11:54 69.1 °F 69.1 °F 29.88 in SW 2.0 mph 3.0 mph 100 % 0.00 in
11:59 68.9 °F 68.5 °F 29.88 in Calm   3.0 mph 99 % 0.00 in
12:04 69.1 °F 69.1 °F 29.87 in Calm   3.0 mph 100 % 0.00 in
12:09 69.1 °F 69.1 °F 29.87 in Calm   3.0 mph 100 % 0.00 in
12:14 69.1 °F 69.1 °F 29.87 in SSW 1.0 mph 3.0 mph 100 % 0.00 in
12:19 68.9 °F 68.9 °F 29.86 in SSW 1.0 mph 2.0 mph 100 % 0.00 in
12:24 68.7 °F 68.4 °F 29.86 in Calm   2.0 mph 99 % 0.00 in
12:29 68.9 °F 68.9 °F 29.86 in Calm   2.0 mph 100 % 0.00 in
12:34 68.7 °F 68.4 °F 29.86 in SSW 1.0 mph 2.0 mph 99 % 0.00 in
12:39 68.5 °F 68.2 °F 29.85 in SSE 1.0 mph 2.0 mph 99 % 0.00 in
12:44 68.5 °F 68.2 °F 29.84 in Calm   3.0 mph 99 % 0.00 in
12:49 68.4 °F 68.0 °F 29.84 in SSW 1.0 mph 3.0 mph 99 % 0.00 in
12:54 68.4 °F 68.0 °F 29.84 in East 3.0 mph 3.0 mph 99 % 0.01 in
12:59 68.4 °F 68.0 °F 29.84 in SSW 1.0 mph 3.0 mph 99 % 0.02 in
13:05 68.5 °F 68.2 °F 29.84 in SSW 1.0 mph 4.0 mph 99 % 0.02 in
13:10 68.5 °F 68.2 °F 29.83 in Calm   4.0 mph 99 % 0.03 in
13:15 68.9 °F 68.9 °F 29.83 in SW 1.0 mph 4.0 mph 100 % 0.04 in
13:20 68.7 °F 68.4 °F 29.83 in Calm   3.0 mph 99 % 0.04 in
13:25 68.7 °F 68.4 °F 29.82 in Calm   3.0 mph 99 % 0.04 in
13:30 68.7 °F 68.4 °F 29.82 in South 1.0 mph 3.0 mph 99 % 0.04 in
13:35 68.7 °F 68.4 °F 29.82 in Calm   3.0 mph 99 % 0.04 in
13:40 69.1 °F 68.7 °F 29.82 in SW 2.0 mph 3.0 mph 99 % 0.04 in
13:45 69.1 °F 68.7 °F 29.81 in SW 1.0 mph 2.0 mph 99 % 0.04 in
13:50 69.1 °F 68.7 °F 29.81 in SSW 2.0 mph 7.0 mph 99 % 0.04 in
13:55 68.7 °F 68.2 °F 29.81 in SSW 1.0 mph 7.0 mph 98 % 0.03 in
14:00 68.7 °F 68.2 °F 29.81 in Calm   7.0 mph 98 % 0.02 in
14:05 68.7 °F 68.2 °F 29.81 in WSW 1.0 mph 3.0 mph 98 % 0.00 in
14:10 68.7 °F 68.2 °F 29.80 in SW 1.0 mph 3.0 mph 98 % 0.00 in
14:15 69.1 °F 68.5 °F 29.80 in South 2.0 mph 3.0 mph 98 % 0.00 in
14:20 69.1 °F 68.5 °F 29.80 in SW 1.0 mph 3.0 mph 98 % 0.00 in
14:25 69.3 °F 68.7 °F 29.80 in SW 2.0 mph 3.0 mph 98 % 0.00 in
14:30 69.3 °F 68.4 °F 29.80 in Calm   3.0 mph 97 % 0.00 in
14:35 69.4 °F 68.5 °F 29.79 in SW 3.0 mph 3.0 mph 97 % 0.00 in
14:40 69.6 °F 69.1 °F 29.79 in SSW 2.0 mph 3.0 mph 98 % 0.00 in
14:45 70.0 °F 69.1 °F 29.79 in SSW 1.0 mph 5.0 mph 97 % 0.00 in
14:50 70.2 °F 69.3 °F 29.79 in SW 4.0 mph 7.0 mph 97 % 0.00 in
14:55 70.3 °F 69.1 °F 29.79 in SW 1.0 mph 7.0 mph 96 % 0.00 in
15:00 71.1 °F 69.8 °F 29.79 in SSW 3.0 mph 7.0 mph 96 % 0.00 in
15:05 71.8 °F 70.3 °F 29.78 in SSE 1.0 mph 7.0 mph 95 % 0.00 in
15:10 71.8 °F 69.6 °F 29.79 in SW 2.0 mph 6.0 mph 93 % 0.00 in
15:15 71.8 °F 69.3 °F 29.79 in SSW 2.0 mph 6.0 mph 92 % 0.00 in
15:20 71.4 °F 68.4 °F 29.79 in South 4.0 mph 8.0 mph 90 % 0.00 in
15:25 71.1 °F 68.5 °F 29.79 in WSW 2.0 mph 8.0 mph 92 % 0.00 in
15:30 71.1 °F 68.4 °F 29.79 in SW 2.0 mph 8.0 mph 91 % 0.00 in
15:35 70.9 °F 68.4 °F 29.79 in SSW 2.0 mph 8.0 mph 92 % 0.00 in
15:40 70.9 °F 68.4 °F 29.79 in SSW 2.0 mph 5.0 mph 92 % 0.00 in
15:45 70.9 °F 68.7 °F 29.79 in SSW 2.0 mph 5.0 mph 93 % 0.00 in
15:50 70.9 °F 68.7 °F 29.79 in SSE 2.0 mph 5.0 mph 93 % 0.00 in
15:55 70.9 °F 68.7 °F 29.80 in South 3.0 mph 6.0 mph 93 % 0.00 in
16:00 70.7 °F 68.9 °F 29.80 in SSE 4.0 mph 6.0 mph 94 % 0.00 in
16:01 70.7 °F 68.9 °F 29.80 in SSE 6.0 mph 6.0 mph 94 % 0.00 in
16:06 70.5 °F 68.7 °F 29.80 in SW 1.0 mph 9.0 mph 94 % 0.00 in
16:11 70.3 °F 68.2 °F 29.80 in SW 2.0 mph 9.0 mph 93 % 0.00 in
16:16 70.3 °F 68.5 °F 29.80 in SW 3.0 mph 9.0 mph 94 % 0.00 in
16:21 70.3 °F 68.2 °F 29.80 in SSW 3.0 mph 7.0 mph 93 % 0.00 in
16:26 70.2 °F 68.4 °F 29.80 in South 5.0 mph 7.0 mph 94 % 0.00 in
16:31 70.2 °F 68.0 °F 29.80 in SSW 3.0 mph 7.0 mph 93 % 0.00 in
16:36 70.2 °F 68.0 °F 29.79 in SSW 5.0 mph 7.0 mph 93 % 0.00 in
16:41 70.0 °F 67.8 °F 29.79 in SSW 3.0 mph 8.0 mph 93 % 0.00 in
16:46 70.0 °F 67.8 °F 29.80 in South 7.0 mph 8.0 mph 93 % 0.00 in
16:51 70.0 °F 67.8 °F 29.80 in South 2.0 mph 8.0 mph 93 % 0.00 in
16:56 69.8 °F 67.6 °F 29.79 in SW 4.0 mph 8.0 mph 93 % 0.00 in
17:01 69.6 °F 67.5 °F 29.80 in SSW 5.0 mph 8.0 mph 93 % 0.00 in
17:06 69.6 °F 67.8 °F 29.80 in SSW 2.0 mph 7.0 mph 94 % 0.00 in
17:11 69.6 °F 67.8 °F 29.80 in SSW 3.0 mph 7.0 mph 94 % 0.00 in
17:16 69.6 °F 68.2 °F 29.80 in SE 2.0 mph 6.0 mph 95 % 0.00 in
17:21 69.6 °F 68.2 °F 29.81 in SE 4.0 mph 5.0 mph 95 % 0.00 in
17:26 69.4 °F 68.0 °F 29.81 in SW 3.0 mph 6.0 mph 95 % 0.00 in
17:31 68.7 °F 66.6 °F 29.81 in WSW 1.0 mph 7.0 mph 93 % 0.00 in
17:36 66.9 °F 64.2 °F 29.82 in NW 8.0 mph 8.0 mph 91 % 0.00 in
17:41 64.6 °F 61.9 °F 29.82 in NW 4.0 mph 11.0 mph 91 % 0.00 in
17:46 63.0 °F 61.0 °F 29.82 in WNW 6.0 mph 11.0 mph 93 % 0.00 in
17:51 61.9 °F 60.1 °F 29.83 in NW 4.0 mph 11.0 mph 94 % 0.00 in
17:56 61.0 °F 59.2 °F 29.83 in West 2.0 mph 9.0 mph 94 % 0.00 in
18:01 59.7 °F 57.7 °F 29.83 in North 3.0 mph 10.0 mph 93 % 0.00 in
18:06 58.8 °F 57.0 °F 29.83 in North 4.0 mph 11.0 mph 94 % 0.00 in
18:11 58.1 °F 56.7 °F 29.83 in NNE 2.0 mph 11.0 mph 95 % 0.00 in
18:16 57.6 °F 56.1 °F 29.83 in NW 4.0 mph 11.0 mph 95 % 0.00 in
18:21 57.0 °F 55.9 °F 29.83 in NNW 4.0 mph 10.0 mph 96 % 0.00 in
18:26 56.7 °F 55.6 °F 29.83 in Calm   10.0 mph 96 % 0.00 in
18:31 56.5 °F 55.4 °F 29.84 in WSW 1.0 mph 10.0 mph 96 % 0.00 in
18:36 55.9 °F 54.9 °F 29.84 in NNW 4.0 mph 9.0 mph 96 % 0.00 in
18:41 55.8 °F 54.7 °F 29.84 in North 1.0 mph 7.0 mph 96 % 0.00 in
18:46 55.6 °F 54.7 °F 29.84 in WNW 5.0 mph 7.0 mph 97 % 0.00 in
18:51 55.2 °F 54.3 °F 29.85 in NW 4.0 mph 7.0 mph 97 % 0.00 in
18:56 55.0 °F 54.1 °F 29.85 in NW 6.0 mph 6.0 mph 97 % 0.00 in
19:01 55.0 °F 54.1 °F 29.85 in NW 2.0 mph 6.0 mph 97 % 0.00 in
19:04 54.9 °F 54.0 °F 29.85 in NW 2.0 mph 6.0 mph 97 % 0.00 in
19:09 54.9 °F 54.0 °F 29.86 in North 5.0 mph 6.0 mph 97 % 0.00 in
19:14 54.7 °F 53.8 °F 29.86 in WNW 4.0 mph 6.0 mph 97 % 0.00 in
19:19 54.7 °F 53.8 °F 29.86 in NW 1.0 mph 10.0 mph 97 % 0.00 in
19:24 54.7 °F 53.8 °F 29.86 in West 1.0 mph 10.0 mph 97 % 0.00 in
19:29 54.5 °F 53.6 °F 29.86 in NW 5.0 mph 10.0 mph 97 % 0.00 in
19:34 54.3 °F 53.4 °F 29.86 in NW 4.0 mph 8.0 mph 97 % 0.00 in
19:39 53.8 °F 52.7 °F 29.87 in NNW 5.0 mph 8.0 mph 96 % 0.00 in
19:44 53.2 °F 52.2 °F 29.88 in North 4.0 mph 10.0 mph 96 % 0.00 in
19:49 52.9 °F 51.8 °F 29.88 in NW 5.0 mph 10.0 mph 96 % 0.00 in
19:54 52.5 °F 51.4 °F 29.88 in WNW 3.0 mph 10.0 mph 96 % 0.00 in
19:59 52.2 °F 51.1 °F 29.88 in North 10.0 mph 10.0 mph 96 % 0.00 in
20:04 52.0 °F 50.9 °F 29.88 in NW 2.0 mph 11.0 mph 96 % 0.00 in
20:09 51.6 °F 50.7 °F 29.88 in NW 5.0 mph 11.0 mph 97 % 0.00 in
20:14 51.3 °F 50.2 °F 29.88 in West 9.0 mph 11.0 mph 96 % 0.00 in
20:19 51.1 °F 50.2 °F 29.88 in NW 2.0 mph 9.0 mph 97 % 0.00 in
20:24 50.9 °F 50.0 °F 29.89 in NNE 5.0 mph 9.0 mph 97 % 0.00 in
20:29 50.7 °F 49.8 °F 29.89 in NW 3.0 mph 9.0 mph 97 % 0.00 in
20:34 50.5 °F 49.6 °F 29.89 in West 3.0 mph 9.0 mph 97 % 0.00 in
20:39 50.4 °F 49.5 °F 29.89 in NW 3.0 mph 9.0 mph 97 % 0.00 in
20:44 50.2 °F 49.3 °F 29.89 in NNW 2.0 mph 7.0 mph 97 % 0.00 in
20:49 50.2 °F 49.3 °F 29.89 in NNW 2.0 mph 8.0 mph 97 % 0.00 in
20:54 49.8 °F 48.9 °F 29.89 in NW 5.0 mph 8.0 mph 97 % 0.00 in
20:59 49.6 °F 48.7 °F 29.89 in NNW 1.0 mph 8.0 mph 97 % 0.00 in
21:04 49.6 °F 48.7 °F 29.89 in NNW 1.0 mph 8.0 mph 97 % 0.00 in
21:09 49.5 °F 48.6 °F 29.89 in NNW 4.0 mph 8.0 mph 97 % 0.00 in
21:14 49.3 °F 48.4 °F 29.90 in Calm   7.0 mph 97 % 0.00 in
21:19 48.9 °F 48.0 °F 29.90 in NW 3.0 mph 8.0 mph 97 % 0.00 in
21:24 48.7 °F 47.8 °F 29.89 in NNW 1.0 mph 8.0 mph 97 % 0.00 in
21:29 48.6 °F 47.7 °F 29.90 in NNW 4.0 mph 9.0 mph 97 % 0.00 in
21:35 48.4 °F 47.5 °F 29.90 in NW 5.0 mph 9.0 mph 97 % 0.00 in
21:40 48.4 °F 47.8 °F 29.90 in NNW 2.0 mph 9.0 mph 98 % 0.00 in
21:45 48.2 °F 47.7 °F 29.90 in NNW 2.0 mph 6.0 mph 98 % 0.00 in
21:50 48.0 °F 47.5 °F 29.90 in NNW 2.0 mph 6.0 mph 98 % 0.00 in
21:55 48.0 °F 47.5 °F 29.89 in Calm   6.0 mph 98 % 0.00 in
22:00 48.0 °F 47.5 °F 29.89 in NW 3.0 mph 5.0 mph 98 % 0.00 in
22:05 48.0 °F 47.5 °F 29.89 in NW 2.0 mph 5.0 mph 98 % 0.00 in
22:10 48.0 °F 47.5 °F 29.90 in NW 2.0 mph 6.0 mph 98 % 0.00 in
22:15 48.0 °F 47.5 °F 29.90 in NNW 5.0 mph 6.0 mph 98 % 0.00 in
22:20 47.8 °F 47.3 °F 29.90 in NNW 2.0 mph 7.0 mph 98 % 0.00 in
22:25 47.8 °F 47.3 °F 29.90 in NW 3.0 mph 7.0 mph 98 % 0.00 in
22:30 47.8 °F 47.3 °F 29.90 in NNW 2.0 mph 7.0 mph 98 % 0.00 in
22:35 47.7 °F 47.1 °F 29.90 in NNW 3.0 mph 7.0 mph 98 % 0.00 in
22:40 47.5 °F 46.9 °F 29.90 in NNW 1.0 mph 7.0 mph 98 % 0.00 in
22:45 47.5 °F 46.9 °F 29.90 in NNW 7.0 mph 9.0 mph 98 % 0.00 in
22:50 47.1 °F 46.6 °F 29.90 in WNW 3.0 mph 9.0 mph 98 % 0.00 in
22:55 47.1 °F 46.6 °F 29.90 in NW 4.0 mph 9.0 mph 98 % 0.00 in
23:00 46.9 °F 46.4 °F 29.90 in NW 3.0 mph 7.0 mph 98 % 0.00 in
23:05 46.9 °F 46.4 °F 29.90 in North 4.0 mph 9.0 mph 98 % 0.00 in
23:10 46.6 °F 45.9 °F 29.90 in NNW 5.0 mph 10.0 mph 97 % 0.00 in
23:15 46.4 °F 45.7 °F 29.90 in NW 4.0 mph 10.0 mph 97 % 0.00 in
23:20 46.2 °F 45.5 °F 29.91 in WNW 3.0 mph 10.0 mph 97 % 0.00 in
23:25 45.9 °F 45.3 °F 29.91 in NW 2.0 mph 9.0 mph 98 % 0.00 in
23:30 45.9 °F 45.3 °F 29.91 in NW 3.0 mph 9.0 mph 98 % 0.00 in
23:35 45.7 °F 45.1 °F 29.91 in North 8.0 mph 9.0 mph 98 % 0.00 in
23:40 45.7 °F 45.1 °F 29.91 in NW 2.0 mph 9.0 mph 98 % 0.00 in
23:45 45.7 °F 45.1 °F 29.91 in NW 6.0 mph 9.0 mph 98 % 0.00 in
23:50 45.3 °F 44.8 °F 29.91 in NW 4.0 mph 9.0 mph 98 % 0.00 in
23:55 45.3 °F 44.8 °F 29.91 in West 2.0 mph 8.0 mph 98 % 0.00 in
Spring, Texas: Villages of Bridgestone
Compliments of Weather Underground - 2.75 mb

Script developed by  Jim McMurry - jmcmurry@mwt.net Adapted for the template by  Wim van der Kuil - Leuven-Template.eu

You find our weather info also at:

UK Metoffice

WeatherCloud

Weather Underground

Mid-South Weather Network

AWEKAS

Citizen Weather Observer Program (CWOP)

HAMweather, WeatherForYou, PWS Weather

Equipment we use:

Weather-station
Davis Vantage Vue

Weather-program
Meteohub

Weather-server
Debian 7.9 x86 (Guest)

Provider
DreamHost

Davis Vantage Vue

Meteohub

Debian 7.9 x86 (Guest)

DreamHost